KOQT METAR and TAF weather

Enter ICAO airport designator
Station Type Date Time Source
KOQT METAR 2017/10/19 07:09 UTC NOAA

KOQT 190709Z AUTO 00000KT 10SM BKN002 08/08 A3029 RMK AO2 T00780078


Station Type Date Time Source
KOQT Decoded METAR 2017/10/19 07:09 UTC NOAA

OAK RIDGE, TN, United States (KOQT) 36-01N 84-14W
Oct 19, 2017 - 03:09 AM EDT / 2017.10.19 0709 UTC
Wind: Calm:0
Visibility: 10 mile(s):0
Sky conditions: mostly cloudy
Temperature: 46.0 F (7.8 C)
Dew Point: 46.0 F (7.8 C)
Relative Humidity: 100%
Pressure (altimeter): 30.29 in. Hg (1025 hPa)
ob: KOQT 190709Z AUTO 00000KT 10SM BKN002 08/08 A3029 RMK AO2 T00780078
cycle: 7

Station Type Date Time Source
KOQT TAF UTC NOAA

Error!


Example: see airport list